Barefoot — WDF2911 — position and weather

sailwx.info

Track history (hours):
 
Tides and Currents Weather Stations Pressure Air Temp Water Temp Dewpoint Dewpoint Depression Visibility Wind Speed Wind Dir Waves Ship Positions

Barefoot

Owner: Content, David W, Seattle, WA. More information available from US FCC via Universal Licensing System and Coast Guard Vessel Documentation Center.

Last reported at 2015-Jun-30 23:06 UTC. Time now 2015-Aug-05 12:31 UTC.
Position S 27°38' E 153°21'.
Warning: this ship's position is 35 days out of date.

Length 13 m.

Type: Sailing vessel. MMSI: 367433390.

Date/timePositionNaut miles runAvg speedWind from/ knotsBaromVisibWave heightAir tempDewpointWater temp
2015-Jun-30 23:06S 27°38' E 153°21'1 1.8
2015-Jun-30 22:29S 27°39' E 153°22'0 0.0
2015-Jun-30 21:32S 27°39' E 153°22'0 0.0
2015-Jun-30 20:29S 27°39' E 153°22'0 0.0
2015-Jun-30 19:26S 27°39' E 153°22'0 0.0
2015-Jun-30 13:08S 27°39' E 153°22'0 0.0
2015-Jun-30 12:17S 27°39' E 153°22'0 0.0
2015-Jun-30 11:32S 27°39' E 153°22'0 0.0
2015-Jun-30 10:29S 27°39' E 153°22'0 0.0
2015-Jun-30 09:32S 27°39' E 153°22'0 0.0
2015-Jun-30 08:29S 27°39' E 153°22'0 0.0
2015-Jun-30 07:29S 27°39' E 153°22'1 0.2
2015-Jun-30 00:16S 27°40' E 153°22'2 3.0
2015-Jun-29 23:33S 27°42' E 153°22'3 3.3
2015-Jun-29 22:33S 27°46' E 153°22'1 0.8
2015-Jun-29 21:31S 27°46' E 153°22'0 0.0
2015-Jun-29 20:31S 27°46' E 153°22'0 0.0
2015-Jun-29 19:31S 27°46' E 153°22'0 0.0
2015-Jun-29 18:31S 27°46' E 153°22'0 0.0
2015-Jun-29 17:31S 27°46' E 153°22'0 0.0
2015-Jun-29 16:31S 27°46' E 153°22'0 0.0
2015-Jun-29 15:31S 27°46' E 153°22'0 0.0
2015-Jun-29 14:31S 27°46' E 153°22'0 0.0
2015-Jun-29 13:31S 27°46' E 153°22'0 0.0
2015-Jun-29 12:28S 27°46' E 153°22'0 0.0
2015-Jun-29 11:31S 27°46' E 153°22'0 0.0
2015-Jun-29 10:31S 27°46' E 153°22'0 0.0
2015-Jun-29 09:31S 27°46' E 153°22'0 0.0
2015-Jun-29 08:31S 27°46' E 153°22'0 0.0
2015-Jun-29 07:31S 27°46' E 153°22'2 1.7
2015-Jun-29 06:32S 27°47' E 153°24'0 0.1
2015-Jun-29 05:33S 27°47' E 153°24'2 1.7
2015-Jun-29 04:33S 27°49' E 153°25'6 1.9
2015-Jun-29 01:17S 27°55' E 153°25'0 0.0
2015-Jun-29 00:14S 27°55' E 153°25'0 0.0
2015-Jun-28 22:32S 27°55' E 153°25'0 0.0
2015-Jun-28 21:29S 27°55' E 153°25'0 0.0
2015-Jun-28 18:08S 27°55' E 153°25'0 0.0
2015-Jun-28 16:26S 27°55' E 153°25'0 0.0
2015-Jun-28 15:26S 27°55' E 153°25'0 0.0
2015-Jun-28 14:29S 27°55' E 153°25'0 0.0
2015-Jun-28 13:32S 27°55' E 153°25'0 0.0
2015-Jun-28 12:32S 27°55' E 153°25'0 0.0
2015-Jun-28 11:26S 27°55' E 153°25'0 0.0
2015-Jun-28 10:32S 27°55' E 153°25'0 0.0
2015-Jun-28 09:17S 27°55' E 153°25'  
2015-Jun-25 17:08S 32°39' E 152°24'4 6.9
2015-Jun-25 16:33S 32°42' E 152°21'7 6.7
2015-Jun-25 15:33S 32°47' E 152°15'  
Track history (hours):
 
Tides and Currents Weather Stations Pressure Air Temp Water Temp Dewpoint Dewpoint Depression Visibility Wind Speed Wind Dir Waves Ship Positions

Barefoot

Owner: Content, David W, Seattle, WA. More information available from US FCC via Universal Licensing System and Coast Guard Vessel Documentation Center.

Last reported at 2015-Jun-30 23:06 UTC. Time now 2015-Aug-05 12:31 UTC.
Position S 27°38' E 153°21'.
Warning: this ship's position is 35 days out of date.

Length 13 m.

Type: Sailing vessel. MMSI: 367433390.

Date/timePositionNaut miles runAvg speedWind from/ knotsBaromVisibWave heightAir tempDewpointWater temp
2015-Jun-30 23:06S 27°38' E 153°21'1 1.8
2015-Jun-30 22:29S 27°39' E 153°22'0 0.0
2015-Jun-30 21:32S 27°39' E 153°22'0 0.0
2015-Jun-30 20:29S 27°39' E 153°22'0 0.0
2015-Jun-30 19:26S 27°39' E 153°22'0 0.0
2015-Jun-30 13:08S 27°39' E 153°22'0 0.0
2015-Jun-30 12:17S 27°39' E 153°22'0 0.0
2015-Jun-30 11:32S 27°39' E 153°22'0 0.0
2015-Jun-30 10:29S 27°39' E 153°22'0 0.0
2015-Jun-30 09:32S 27°39' E 153°22'0 0.0
2015-Jun-30 08:29S 27°39' E 153°22'0 0.0
2015-Jun-30 07:29S 27°39' E 153°22'1 0.2
2015-Jun-30 00:16S 27°40' E 153°22'2 3.0
2015-Jun-29 23:33S 27°42' E 153°22'3 3.3
2015-Jun-29 22:33S 27°46' E 153°22'1 0.8
2015-Jun-29 21:31S 27°46' E 153°22'0 0.0
2015-Jun-29 20:31S 27°46' E 153°22'0 0.0
2015-Jun-29 19:31S 27°46' E 153°22'0 0.0
2015-Jun-29 18:31S 27°46' E 153°22'0 0.0
2015-Jun-29 17:31S 27°46' E 153°22'0 0.0
2015-Jun-29 16:31S 27°46' E 153°22'0 0.0
2015-Jun-29 15:31S 27°46' E 153°22'0 0.0
2015-Jun-29 14:31S 27°46' E 153°22'0 0.0
2015-Jun-29 13:31S 27°46' E 153°22'0 0.0
2015-Jun-29 12:28S 27°46' E 153°22'0 0.0
2015-Jun-29 11:31S 27°46' E 153°22'0 0.0
2015-Jun-29 10:31S 27°46' E 153°22'0 0.0
2015-Jun-29 09:31S 27°46' E 153°22'0 0.0
2015-Jun-29 08:31S 27°46' E 153°22'0 0.0
2015-Jun-29 07:31S 27°46' E 153°22'2 1.7
2015-Jun-29 06:32S 27°47' E 153°24'0 0.1
2015-Jun-29 05:33S 27°47' E 153°24'2 1.7
2015-Jun-29 04:33S 27°49' E 153°25'6 1.9
2015-Jun-29 01:17S 27°55' E 153°25'0 0.0
2015-Jun-29 00:14S 27°55' E 153°25'0 0.0
2015-Jun-28 22:32S 27°55' E 153°25'0 0.0
2015-Jun-28 21:29S 27°55' E 153°25'0 0.0
2015-Jun-28 18:08S 27°55' E 153°25'0 0.0
2015-Jun-28 16:26S 27°55' E 153°25'0 0.0
2015-Jun-28 15:26S 27°55' E 153°25'0 0.0
2015-Jun-28 14:29S 27°55' E 153°25'0 0.0
2015-Jun-28 13:32S 27°55' E 153°25'0 0.0
2015-Jun-28 12:32S 27°55' E 153°25'0 0.0
2015-Jun-28 11:26S 27°55' E 153°25'0 0.0
2015-Jun-28 10:32S 27°55' E 153°25'0 0.0
2015-Jun-28 09:17S 27°55' E 153°25'  
2015-Jun-25 17:08S 32°39' E 152°24'4 6.9
2015-Jun-25 16:33S 32°42' E 152°21'7 6.7
2015-Jun-25 15:33S 32°47' E 152°15'  

Dump ship's entire track history